Buffalo Narrows, Canada
Current Conditions -  °F | °C
As of 10:00 AM on Thursday 29 Jan 2015 (Local Time) from CYVT Reporting Station
Overcast Overcast  
Wind Chill: -29°   Ceiling: 15000
Heat Index: -17°   Visibility: 15mi
Dew Point: -22°   Wind: 5mph
Humidity: 76%   Direction: 170°S
Pressure: 30.46"   Gusts: NA
Location:  55.87°N, 108.48°W
Report Text: CYVT 291600Z 17004KT 15SM SCT065 OVC150 M27/M30 A3046 RMK SC4AC4 SLP368
Loading
Personal Weather Stations






























Interactive Weather Map New forecast layout! Learn more

10-Day Weather Forecast

Advertisements
Track Severe Weather on mobile